createdAt,value
2019-02-06T00:02:34.485Z,-3.90
2019-02-06T00:05:15.830Z,-4.00
2019-02-06T00:07:57.341Z,-4.00
2019-02-06T00:10:26.603Z,-4.10
2019-02-06T00:12:55.898Z,-4.20
2019-02-06T00:15:44.039Z,-4.30
2019-02-06T00:18:32.438Z,-4.30
2019-02-06T00:21:20.824Z,-4.30
2019-02-06T00:24:08.931Z,-4.30
2019-02-06T00:26:57.309Z,-4.20
2019-02-06T00:29:45.347Z,-4.20
2019-02-06T00:32:33.483Z,-4.20
2019-02-06T00:35:25.835Z,-4.20
2019-02-06T00:38:11.622Z,-4.20
2019-02-06T00:40:59.739Z,-4.30
2019-02-06T00:43:49.582Z,-4.20
2019-02-06T00:49:32.550Z,-4.20
2019-02-06T00:52:20.681Z,-4.20
2019-02-06T00:55:07.223Z,-4.20
2019-02-06T00:57:55.353Z,-4.20
2019-02-06T01:00:36.467Z,-4.20
2019-02-06T01:03:17.815Z,-4.20
2019-02-06T01:05:58.875Z,-4.20
2019-02-06T01:08:39.563Z,-4.20
2019-02-06T01:11:20.019Z,-4.20
2019-02-06T01:14:00.714Z,-4.20
2019-02-06T01:16:41.430Z,-4.30
2019-02-06T01:19:22.122Z,-4.30
2019-02-06T01:22:02.751Z,-4.20
2019-02-06T01:24:43.628Z,-4.20
2019-02-06T01:27:13.157Z,-4.20
2019-02-06T01:30:01.370Z,-4.20
2019-02-06T01:32:49.490Z,-4.20
2019-02-06T01:35:49.207Z,-4.20
2019-02-06T01:38:27.842Z,-4.20
2019-02-06T01:41:15.962Z,-4.20
2019-02-06T01:44:04.169Z,-4.20
2019-02-06T01:46:52.306Z,-4.20
2019-02-06T01:49:40.424Z,-4.10
2019-02-06T01:52:28.570Z,-4.10
2019-02-06T01:55:16.776Z,-4.10
2019-02-06T01:58:04.908Z,-4.20
2019-02-06T02:00:53.187Z,-4.10
2019-02-06T02:03:41.341Z,-4.20
2019-02-06T02:06:29.506Z,-4.10
2019-02-06T02:09:36.700Z,-4.20
2019-02-06T02:12:25.155Z,-4.20
2019-02-06T02:15:13.877Z,-4.30
2019-02-06T02:18:02.043Z,-4.40
2019-02-06T02:20:42.374Z,-4.30
2019-02-06T02:23:23.220Z,-4.40
2019-02-06T02:26:04.037Z,-4.40
2019-02-06T02:28:44.639Z,-4.40
2019-02-06T02:31:25.494Z,-4.40
2019-02-06T02:34:06.538Z,-4.30
2019-02-06T02:36:48.435Z,-4.30
2019-02-06T02:39:28.785Z,-4.30
2019-02-06T02:42:10.298Z,-4.30
2019-02-06T02:44:39.267Z,-4.30
2019-02-06T02:47:27.438Z,-4.40
2019-02-06T02:50:15.581Z,-4.40
2019-02-06T02:53:03.840Z,-4.40
2019-02-06T02:55:51.991Z,-4.40
2019-02-06T02:58:40.154Z,-4.30
2019-02-06T03:01:28.254Z,-4.30
2019-02-06T03:04:35.459Z,-4.40
2019-02-06T03:07:23.831Z,-4.40
2019-02-06T03:10:12.542Z,-4.40
2019-02-06T03:13:00.715Z,-4.40
2019-02-06T03:15:48.834Z,-4.50
2019-02-06T03:18:36.958Z,-4.50
2019-02-06T03:21:19.581Z,-4.60
2019-02-06T03:24:00.345Z,-4.70
2019-02-06T03:26:41.090Z,-4.70
2019-02-06T03:29:20.731Z,-4.70
2019-02-06T03:32:08.883Z,-4.80
2019-02-06T03:34:57.235Z,-4.70
2019-02-06T03:37:45.373Z,-4.70
2019-02-06T03:40:33.487Z,-4.60
2019-02-06T03:43:21.812Z,-4.60
2019-02-06T03:46:09.927Z,-4.60
2019-02-06T03:48:58.167Z,-4.60
2019-02-06T03:51:46.280Z,-4.60
2019-02-06T03:54:34.401Z,-4.70
2019-02-06T03:57:22.502Z,-4.70
2019-02-06T04:00:12.162Z,-4.80
2019-02-06T04:02:41.156Z,-4.80
2019-02-06T04:05:29.215Z,-4.90
2019-02-06T04:08:17.355Z,-4.90
2019-02-06T04:11:05.486Z,-4.90
2019-02-06T04:13:53.734Z,-5.10
2019-02-06T04:16:42.217Z,-5.10
2019-02-06T04:19:30.363Z,-5.10
2019-02-06T04:22:18.492Z,-5.10
2019-02-06T04:25:06.751Z,-5.10
2019-02-06T04:27:55.171Z,-5.20
2019-02-06T04:30:43.304Z,-5.10
2019-02-06T04:33:31.431Z,-5.00
2019-02-06T04:36:19.491Z,-5.10
2019-02-06T04:39:08.030Z,-5.10
2019-02-06T04:41:57.868Z,-5.20
2019-02-06T04:44:46.195Z,-5.30
2019-02-06T04:47:34.327Z,-5.30
2019-02-06T04:50:22.470Z,-5.40
2019-02-06T04:53:10.587Z,-5.30
2019-02-06T04:55:58.719Z,-5.50
2019-02-06T04:58:46.830Z,-5.40
2019-02-06T05:01:36.827Z,-5.40
2019-02-06T05:04:24.956Z,-5.40
2019-02-06T05:07:19.289Z,-5.40
2019-02-06T05:10:02.871Z,-5.40
2019-02-06T05:12:51.051Z,-5.50
2019-02-06T05:15:39.201Z,-5.50
2019-02-06T05:18:27.319Z,-5.50
2019-02-06T05:21:08.503Z,-5.50
2019-02-06T05:23:49.150Z,-5.50
2019-02-06T05:26:30.122Z,-5.50
2019-02-06T05:29:11.175Z,-5.50
2019-02-06T05:31:52.043Z,-5.50
2019-02-06T05:34:32.632Z,-5.40
2019-02-06T05:37:13.654Z,-5.50
2019-02-06T05:39:42.576Z,-5.60
2019-02-06T05:42:30.639Z,-5.60
2019-02-06T05:45:19.127Z,-5.60
2019-02-06T05:48:07.254Z,-5.50
2019-02-06T05:50:55.306Z,-5.50
2019-02-06T05:53:43.443Z,-5.50
2019-02-06T05:56:31.583Z,-5.50
2019-02-06T05:59:19.628Z,-5.50
2019-02-06T06:02:07.688Z,-5.50
2019-02-06T06:04:55.807Z,-5.50
2019-02-06T06:07:45.473Z,-5.50
2019-02-06T06:10:33.834Z,-5.40
2019-02-06T06:13:21.969Z,-5.40
2019-02-06T06:16:10.177Z,-5.50
2019-02-06T06:18:58.311Z,-5.40
2019-02-06T06:21:27.170Z,-5.40
2019-02-06T06:24:15.291Z,-5.40
2019-02-06T06:27:03.675Z,-5.40
2019-02-06T06:29:51.789Z,-5.30
2019-02-06T06:32:40.335Z,-5.30
2019-02-06T06:35:28.701Z,-5.30
2019-02-06T06:38:16.824Z,-5.30
2019-02-06T06:41:05.018Z,-5.30
2019-02-06T06:43:53.101Z,-5.30
2019-02-06T06:46:41.206Z,-5.30
2019-02-06T06:49:29.287Z,-5.20
2019-02-06T06:52:19.067Z,-5.20
2019-02-06T06:55:07.571Z,-5.20
2019-02-06T06:57:55.707Z,-5.30
2019-02-06T07:00:43.840Z,-5.20
2019-02-06T07:03:31.975Z,-5.20
2019-02-06T07:06:20.095Z,-5.10
2019-02-06T07:09:08.896Z,-5.10
2019-02-06T07:11:37.874Z,-5.00
2019-02-06T07:14:25.995Z,-5.00
2019-02-06T07:17:14.115Z,-5.00
2019-02-06T07:19:55.155Z,-5.00
2019-02-06T07:22:35.531Z,-5.00
2019-02-06T07:25:16.082Z,-5.00
2019-02-06T07:27:57.306Z,-5.00
2019-02-06T07:30:41.030Z,-5.00
2019-02-06T07:33:22.324Z,-5.00
2019-02-06T07:36:03.351Z,-5.00
2019-02-06T07:41:33.540Z,-4.90
2019-02-06T07:46:56.651Z,-4.80
2019-02-06T07:49:37.171Z,-4.80
2019-02-06T07:52:17.948Z,-4.70
2019-02-06T07:57:44.735Z,-4.60
2019-02-06T08:00:25.101Z,-4.50
2019-02-06T08:05:47.992Z,-4.50
2019-02-06T08:08:35.593Z,-4.40
2019-02-06T08:11:10.970Z,-4.20
2019-02-06T08:13:52.491Z,-4.20
2019-02-06T08:16:32.885Z,-4.10
2019-02-06T08:19:16.451Z,-4.10
2019-02-06T08:21:57.999Z,-4.00
2019-02-06T08:27:20.573Z,-4.00
2019-02-06T08:30:01.086Z,-4.00
2019-02-06T08:32:41.740Z,-4.00
2019-02-06T08:35:22.890Z,-3.80
2019-02-06T08:38:03.610Z,-3.60
2019-02-06T08:40:44.346Z,-3.60
2019-02-06T08:43:24.872Z,-3.40
2019-02-06T08:46:05.651Z,-3.20
2019-02-06T08:48:46.400Z,-3.20
2019-02-06T08:51:27.465Z,-3.30
2019-02-06T08:54:08.707Z,-3.30
2019-02-06T08:56:49.480Z,-3.50
2019-02-06T08:59:29.919Z,-3.60
2019-02-06T09:02:10.703Z,-3.40
2019-02-06T09:04:55.882Z,-3.00
2019-02-06T09:07:33.951Z,-2.80
2019-02-06T09:10:14.762Z,-2.60
2019-02-06T09:12:55.753Z,-2.50
2019-02-06T09:15:36.119Z,-2.60
2019-02-06T09:18:16.858Z,-2.50
2019-02-06T09:20:57.794Z,-2.30
2019-02-06T09:23:39.368Z,-2.30
2019-02-06T09:26:20.906Z,-2.70
2019-02-06T09:29:01.258Z,-2.40
2019-02-06T09:31:41.959Z,-2.40
2019-02-06T09:34:25.648Z,-2.40
2019-02-06T09:39:49.110Z,-2.80
2019-02-06T09:42:30.531Z,-3.10
2019-02-06T09:45:11.351Z,-3.10
2019-02-06T09:47:51.706Z,-3.10
2019-02-06T09:50:33.290Z,-3.00
2019-02-06T09:53:13.987Z,-2.80
2019-02-06T09:58:36.470Z,-3.00
2019-02-06T10:04:06.359Z,-3.00
2019-02-06T10:09:36.526Z,-2.50
2019-02-06T10:12:17.826Z,-2.30
2019-02-06T10:14:58.603Z,-2.40
2019-02-06T10:20:25.451Z,-2.70
2019-02-06T10:23:05.828Z,-2.80
2019-02-06T10:25:46.283Z,-2.40
2019-02-06T10:28:27.009Z,-1.80
2019-02-06T10:31:07.710Z,-1.70
2019-02-06T10:33:48.343Z,-2.30
2019-02-06T10:36:29.215Z,-2.20
2019-02-06T10:39:09.787Z,-2.50
2019-02-06T10:44:32.536Z,-2.40
2019-02-06T10:47:12.987Z,-2.80
2019-02-06T10:49:53.591Z,-3.20
2019-02-06T10:52:34.212Z,-3.10
2019-02-06T10:55:14.947Z,-2.80
2019-02-06T10:57:55.543Z,-2.40
2019-02-06T11:00:36.312Z,-2.20
2019-02-06T11:03:17.182Z,-2.40
2019-02-06T11:05:57.682Z,-2.60
2019-02-06T11:11:24.410Z,-2.80
2019-02-06T11:14:05.379Z,-2.70
2019-02-06T11:19:29.191Z,-2.20
2019-02-06T11:22:10.169Z,-2.00
2019-02-06T11:24:51.011Z,-2.30
2019-02-06T11:27:31.735Z,-2.20
2019-02-06T11:30:12.746Z,-2.00
2019-02-06T11:35:35.501Z,-2.20
2019-02-06T11:38:16.256Z,-2.30
2019-02-06T11:40:56.911Z,-2.80
2019-02-06T11:43:37.799Z,-2.80
2019-02-06T11:46:18.431Z,-2.10
2019-02-06T11:48:59.031Z,-2.20
2019-02-06T11:51:39.658Z,-2.30
2019-02-06T11:54:20.679Z,-2.30
2019-02-06T11:57:01.398Z,-1.90
2019-02-06T11:59:42.661Z,-1.50
2019-02-06T12:02:36.660Z,-0.90
2019-02-06T12:05:07.347Z,-0.50
2019-02-06T12:07:47.830Z,-0.40
2019-02-06T12:10:28.444Z,-0.40
2019-02-06T12:13:09.243Z,-0.50
2019-02-06T12:15:49.647Z,-0.60
2019-02-06T12:18:30.147Z,-0.40
2019-02-06T12:21:11.047Z,-0.10
2019-02-06T12:23:51.642Z,0.10
2019-02-06T12:26:32.318Z,0.40
2019-02-06T12:29:12.964Z,0.00
2019-02-06T12:31:53.567Z,-0.50
2019-02-06T12:34:34.363Z,-0.60
2019-02-06T12:37:15.039Z,-1.20
2019-02-06T12:42:45.119Z,-0.80
2019-02-06T12:45:25.627Z,-0.40
2019-02-06T12:48:06.573Z,-0.40
2019-02-06T12:56:15.707Z,-1.90
2019-02-06T12:58:56.576Z,-2.00
2019-02-06T13:01:37.262Z,-2.40
2019-02-06T13:04:18.155Z,-2.70
2019-02-06T13:07:00.287Z,-2.60
2019-02-06T13:09:41.003Z,-2.30
2019-02-06T13:12:21.916Z,-2.40
2019-02-06T13:17:44.504Z,-2.60
2019-02-06T13:23:07.819Z,-2.00
2019-02-06T13:28:30.926Z,-2.10
2019-02-06T13:33:53.795Z,-1.80
2019-02-06T13:39:29.991Z,-1.00
2019-02-06T13:42:11.330Z,-1.00
2019-02-06T13:44:55.154Z,-0.70
2019-02-06T13:47:39.418Z,-0.60
2019-02-06T13:50:22.304Z,-0.60
2019-02-06T13:53:03.442Z,-0.70
2019-02-06T13:55:44.683Z,-0.60
2019-02-06T13:58:25.706Z,-0.70
2019-02-06T14:01:06.438Z,-1.10
2019-02-06T14:03:46.955Z,-1.00
2019-02-06T14:06:28.186Z,-1.10
2019-02-06T14:09:22.209Z,-1.40
2019-02-06T14:11:55.042Z,-1.30
2019-02-06T14:14:35.583Z,-1.00
2019-02-06T14:17:18.187Z,-1.00
2019-02-06T14:20:01.043Z,-0.90
2019-02-06T14:28:28.012Z,-1.20
2019-02-06T14:33:55.753Z,-1.00
2019-02-06T14:36:36.239Z,-1.10
2019-02-06T14:39:19.921Z,-1.30
2019-02-06T14:44:41.604Z,-1.70
2019-02-06T14:50:08.901Z,-1.80
2019-02-06T14:52:49.502Z,-1.80
2019-02-06T14:55:30.447Z,-1.70
2019-02-06T14:58:11.159Z,-1.90
2019-02-06T15:00:59.431Z,-2.40
2019-02-06T15:03:34.562Z,-2.50
2019-02-06T15:06:15.178Z,-2.50
2019-02-06T15:08:56.231Z,-2.70
2019-02-06T15:11:37.099Z,-2.60
2019-02-06T15:14:18.075Z,-2.50
2019-02-06T15:16:58.677Z,-2.50
2019-02-06T15:19:39.339Z,-2.50
2019-02-06T15:22:20.070Z,-2.40
2019-02-06T15:25:00.660Z,-2.50
2019-02-06T15:27:41.627Z,-2.50
2019-02-06T15:30:22.273Z,-2.60
2019-02-06T15:35:44.790Z,-2.60
2019-02-06T15:38:25.237Z,-2.70
2019-02-06T15:43:54.996Z,-2.80
2019-02-06T15:46:35.943Z,-2.80
2019-02-06T15:49:17.061Z,-2.80
2019-02-06T15:51:59.520Z,-2.80
2019-02-06T15:54:39.934Z,-2.80
2019-02-06T15:57:20.939Z,-2.80
2019-02-06T16:00:02.091Z,-2.90
2019-02-06T16:02:42.483Z,-2.90
2019-02-06T16:11:24.166Z,-2.90
2019-02-06T16:14:04.574Z,-3.00
2019-02-06T16:16:48.963Z,-3.00
2019-02-06T16:22:12.233Z,-3.10
2019-02-06T16:24:52.589Z,-3.40
2019-02-06T16:30:19.429Z,-3.60
2019-02-06T16:38:28.502Z,-3.70
2019-02-06T16:41:09.561Z,-3.70
2019-02-06T16:43:50.709Z,-3.80
2019-02-06T16:46:34.332Z,-3.80
2019-02-06T16:52:00.966Z,-4.00
2019-02-06T16:57:30.429Z,-4.00
2019-02-06T17:00:11.410Z,-3.90
2019-02-06T17:08:26.973Z,-3.90
2019-02-06T17:11:37.033Z,-3.90
2019-02-06T17:17:59.923Z,-3.80
2019-02-06T17:24:15.821Z,-3.90
2019-02-06T17:27:07.406Z,-4.00
2019-02-06T17:30:14.655Z,-4.00
2019-02-06T17:33:21.919Z,-4.00
2019-02-06T17:36:02.989Z,-4.00
2019-02-06T17:39:10.253Z,-4.00
2019-02-06T17:42:17.808Z,-4.00
2019-02-06T17:45:25.054Z,-4.00
2019-02-06T17:48:32.328Z,-4.10
2019-02-06T17:51:39.557Z,-4.10
2019-02-06T17:57:39.490Z,-4.10
2019-02-06T18:03:23.646Z,-4.20
2019-02-06T18:06:12.367Z,-4.10
2019-02-06T18:09:00.612Z,-4.20
2019-02-06T18:11:50.511Z,-4.20
2019-02-06T18:14:38.620Z,-4.20
2019-02-06T18:17:26.673Z,-4.20
2019-02-06T18:20:15.500Z,-4.10
2019-02-06T18:23:03.697Z,-4.10
2019-02-06T18:29:07.026Z,-4.10
2019-02-06T18:31:55.386Z,-4.10
2019-02-06T18:34:36.445Z,-4.00
2019-02-06T18:37:17.217Z,-4.00
2019-02-06T18:39:58.419Z,-4.00
2019-02-06T18:42:39.233Z,-4.00
2019-02-06T18:45:20.079Z,-4.00
2019-02-06T18:48:01.173Z,-4.10
2019-02-06T18:50:42.138Z,-4.10
2019-02-06T18:53:22.909Z,-4.10
2019-02-06T18:56:03.854Z,-4.10
2019-02-06T18:58:45.135Z,-4.10
2019-02-06T19:01:25.887Z,-4.20
2019-02-06T19:04:06.592Z,-4.20
2019-02-06T19:06:47.082Z,-4.20
2019-02-06T19:09:29.004Z,-4.30
2019-02-06T19:12:10.396Z,-4.30
2019-02-06T19:14:51.331Z,-4.30
2019-02-06T19:17:32.650Z,-4.20
2019-02-06T19:20:13.369Z,-4.30
2019-02-06T19:22:53.973Z,-4.30
2019-02-06T19:25:34.565Z,-4.20
2019-02-06T19:28:15.245Z,-4.20
2019-02-06T19:30:56.243Z,-4.20
2019-02-06T19:33:36.866Z,-4.20
2019-02-06T19:36:17.388Z,-4.20
2019-02-06T19:38:58.568Z,-4.20
2019-02-06T19:41:39.343Z,-4.20
2019-02-06T19:47:06.240Z,-4.30
2019-02-06T19:52:59.430Z,-4.30
2019-02-06T19:55:28.512Z,-4.30
2019-02-06T19:58:16.563Z,-4.30
2019-02-06T20:01:06.416Z,-4.30
2019-02-06T20:03:54.545Z,-4.20
2019-02-06T20:06:42.601Z,-4.20
2019-02-06T20:09:30.641Z,-4.20
2019-02-06T20:12:18.786Z,-4.20
2019-02-06T20:15:07.261Z,-4.30
2019-02-06T20:17:55.407Z,-4.40
2019-02-06T20:20:43.640Z,-4.30
2019-02-06T20:23:31.701Z,-4.20
2019-02-06T20:26:19.835Z,-4.20
2019-02-06T20:29:08.273Z,-4.30
2019-02-06T20:31:56.651Z,-4.40
2019-02-06T20:34:39.635Z,-4.40
2019-02-06T20:37:20.472Z,-4.40
2019-02-06T20:40:01.677Z,-4.40
2019-02-06T20:42:43.050Z,-4.40
2019-02-06T20:45:24.313Z,-4.40
2019-02-06T20:48:04.955Z,-4.50
2019-02-06T20:50:46.218Z,-4.60
2019-02-06T20:53:27.023Z,-4.60
2019-02-06T20:56:07.539Z,-4.50
2019-02-06T20:58:48.189Z,-4.50
2019-02-06T21:01:28.591Z,-4.50
2019-02-06T21:04:09.512Z,-4.60
2019-02-06T21:12:57.782Z,-4.80
2019-02-06T21:15:38.922Z,-4.60
2019-02-06T21:21:12.542Z,-4.60
2019-02-06T21:23:53.966Z,-4.60
2019-02-06T21:29:19.486Z,-4.70
2019-02-06T21:32:00.350Z,-4.60
2019-02-06T21:34:41.318Z,-4.70
2019-02-06T21:37:21.718Z,-4.60
2019-02-06T21:40:02.374Z,-4.70
2019-02-06T21:42:43.970Z,-4.70
2019-02-06T21:45:24.894Z,-4.70
2019-02-06T21:48:05.585Z,-4.70
2019-02-06T21:50:46.329Z,-4.80
2019-02-06T21:53:27.129Z,-4.80
2019-02-06T21:56:07.665Z,-4.80
2019-02-06T21:58:48.091Z,-4.80
2019-02-06T22:01:29.266Z,-4.80
2019-02-06T22:04:09.929Z,-4.80
2019-02-06T22:06:52.525Z,-4.80
2019-02-06T22:09:33.279Z,-4.80
2019-02-06T22:12:14.041Z,-4.80
2019-02-06T22:14:55.646Z,-4.90
2019-02-06T22:17:36.461Z,-4.90
2019-02-06T22:20:17.204Z,-4.90
2019-02-06T22:22:57.858Z,-5.00
2019-02-06T22:25:38.870Z,-5.00
2019-02-06T22:28:19.420Z,-5.00
2019-02-06T22:31:00.158Z,-5.00
2019-02-06T22:33:40.811Z,-5.10
2019-02-06T22:36:21.395Z,-5.10
2019-02-06T22:39:02.348Z,-5.10
2019-02-06T22:41:42.829Z,-5.10
2019-02-06T22:44:23.449Z,-5.10
2019-02-06T22:52:37.020Z,-5.10
2019-02-06T22:55:17.903Z,-5.00
2019-02-06T23:09:16.433Z,-5.10
2019-02-06T23:14:46.324Z,-5.20
2019-02-06T23:20:13.085Z,-5.30
2019-02-06T23:25:43.207Z,-5.30
2019-02-06T23:28:24.562Z,-5.30
2019-02-06T23:31:05.108Z,-5.40
2019-02-06T23:33:49.529Z,-5.50
2019-02-06T23:39:19.826Z,-5.50
2019-02-06T23:42:00.910Z,-5.50
2019-02-06T23:44:41.934Z,-5.40
2019-02-06T23:50:08.561Z,-5.30
2019-02-06T23:52:49.306Z,-5.30
2019-02-06T23:58:16.346Z,-5.30
